To NAV CANADA Home Page Login to a new session Search on AWWS site Feedback and Comments Disclaimer Vers la page française équivalente Tips FAQ What's new on the site To the Forecasts and Observations / NOTAM section To "File a Flight Plan" website Publications and other links Update of the User's profile FIC Telephone Numbers My Weather Data Folder Route Weather Data Regional Weather Data Local Weather Data To the Forecasts and Observations / NOTAM section
Request Generated 03/27/2015 at 15:38:23 UTC . Weather information available at that time is displayed.

METAR/TAF

PRINCE ALBERT/PRINCE ALBERT (GLASS FIELD)/SK    

METAR CYPA 271500Z 25002KT 2SM BR OVC005 01/00 A2989 RMK ST8 SLP143=
SPECI CYPA 271432Z 32002KT 1 1/2SM BR OVC006 00/00 A2988 RMK ST8
SLP142=
METAR CYPA 271400Z VRB02KT 1 1/2SM BR OVC003 00/00 A2988 RMK ST8
SLP140=
SPECI CYPA 271351Z 04002KT 1 1/2SM BR OVC004 00/00 A2988 RMK ST8
SLP140=
SPECI CYPA 271329Z 08003KT 2SM BR BKN007 BKN030 00/00 A2987 RMK
ST6SC1 SLP137=
METAR CYPA 271300Z 07003KT 2SM BR FEW008 SCT030 BKN065 00/00 A2987
RMK SF1SC2SC3 SLP137=

TAF AMD CYPA 271416Z 2714/2801 VRB02KT 1SM BR VV003 TEMPO 2714/2717
2SM BR OVC007
FM271700 VRB03KT 11/2SM BR BKN007 OVC060 TEMPO 2717/2719 6SM BR
SCT007 BKN060
FM271900 34005KT P6SM SCT012 SCT050 TEMPO 2719/2721 3SM BR BKN012
BKN050
FM272100 30005KT P6SM SCT020 TEMPO 2721/2801 5SM BR BKN020
RMK NXT FCST BY 271900Z=
Your time UTC time
Weather data provided by Environment Canada and NAV CANADA